sensor_id;sensor_type;location;lat;lon;timestamp;P1;durP1;ratioP1;P2;durP2;ratioP2
5349;SDS011;2697;42.144;24.794;2023-05-14T00:02:08;5.37;;;3.00;;
5349;SDS011;2697;42.144;24.794;2023-05-14T00:04:34;6.73;;;3.40;;
5349;SDS011;2697;42.144;24.794;2023-05-14T00:06:59;4.63;;;2.80;;
5349;SDS011;2697;42.144;24.794;2023-05-14T00:09:25;7.23;;;2.80;;
5349;SDS011;2697;42.144;24.794;2023-05-14T00:11:50;6.63;;;3.83;;
5349;SDS011;2697;42.144;24.794;2023-05-14T00:14:16;7.50;;;3.47;;
5349;SDS011;2697;42.144;24.794;2023-05-14T00:16:41;8.30;;;3.53;;
5349;SDS011;2697;42.144;24.794;2023-05-14T00:19:07;6.50;;;2.87;;
5349;SDS011;2697;42.144;24.794;2023-05-14T00:21:32;10.60;;;3.27;;
5349;SDS011;2697;42.144;24.794;2023-05-14T00:23:58;6.80;;;3.23;;
5349;SDS011;2697;42.144;24.794;2023-05-14T00:26:23;6.67;;;3.60;;
5349;SDS011;2697;42.144;24.794;2023-05-14T00:28:48;4.90;;;3.43;;
5349;SDS011;2697;42.144;24.794;2023-05-14T00:31:14;7.20;;;2.70;;
5349;SDS011;2697;42.144;24.794;2023-05-14T00:33:39;5.47;;;2.70;;
5349;SDS011;2697;42.144;24.794;2023-05-14T00:36:05;7.40;;;3.40;;
5349;SDS011;2697;42.144;24.794;2023-05-14T00:38:31;5.13;;;2.93;;
5349;SDS011;2697;42.144;24.794;2023-05-14T00:40:56;12.27;;;3.33;;
5349;SDS011;2697;42.144;24.794;2023-05-14T00:43:22;5.00;;;2.87;;
5349;SDS011;2697;42.144;24.794;2023-05-14T00:45:51;5.90;;;3.43;;
5349;SDS011;2697;42.144;24.794;2023-05-14T00:48:18;14.67;;;3.27;;
5349;SDS011;2697;42.144;24.794;2023-05-14T00:50:44;2.73;;;2.47;;
5349;SDS011;2697;42.144;24.794;2023-05-14T00:53:10;9.20;;;3.93;;
5349;SDS011;2697;42.144;24.794;2023-05-14T00:55:39;11.10;;;3.73;;
5349;SDS011;2697;42.144;24.794;2023-05-14T00:58:09;4.00;;;3.07;;
5349;SDS011;2697;42.144;24.794;2023-05-14T01:00:36;3.97;;;3.00;;
5349;SDS011;2697;42.144;24.794;2023-05-14T01:03:02;4.67;;;2.43;;
5349;SDS011;2697;42.144;24.794;2023-05-14T01:08:49;17.23;;;2.90;;
5349;SDS011;2697;42.144;24.794;2023-05-14T01:11:31;4.37;;;3.00;;
5349;SDS011;2697;42.144;24.794;2023-05-14T01:16:29;7.03;;;3.03;;
5349;SDS011;2697;42.144;24.794;2023-05-14T01:18:57;6.93;;;3.07;;
5349;SDS011;2697;42.144;24.794;2023-05-14T01:24:04;10.40;;;2.73;;
5349;SDS011;2697;42.144;24.794;2023-05-14T01:26:30;13.83;;;3.70;;
5349;SDS011;2697;42.144;24.794;2023-05-14T01:28:58;6.30;;;3.67;;
5349;SDS011;2697;42.144;24.794;2023-05-14T01:31:28;6.27;;;3.27;;
5349;SDS011;2697;42.144;24.794;2023-05-14T01:33:56;8.53;;;3.00;;
5349;SDS011;2697;42.144;24.794;2023-05-14T01:36:23;7.37;;;3.03;;
5349;SDS011;2697;42.144;24.794;2023-05-14T01:38:48;4.03;;;3.03;;
5349;SDS011;2697;42.144;24.794;2023-05-14T01:41:15;8.83;;;3.60;;
5349;SDS011;2697;42.144;24.794;2023-05-14T01:43:43;16.83;;;3.33;;
5349;SDS011;2697;42.144;24.794;2023-05-14T01:46:09;7.80;;;3.67;;
5349;SDS011;2697;42.144;24.794;2023-05-14T01:48:34;13.13;;;4.10;;
5349;SDS011;2697;42.144;24.794;2023-05-14T01:51:01;9.43;;;2.87;;
5349;SDS011;2697;42.144;24.794;2023-05-14T01:53:27;6.00;;;4.30;;
5349;SDS011;2697;42.144;24.794;2023-05-14T01:55:52;32.17;;;3.57;;
5349;SDS011;2697;42.144;24.794;2023-05-14T01:58:18;10.03;;;3.00;;
5349;SDS011;2697;42.144;24.794;2023-05-14T02:00:43;4.20;;;2.63;;
5349;SDS011;2697;42.144;24.794;2023-05-14T02:03:09;4.70;;;2.20;;
5349;SDS011;2697;42.144;24.794;2023-05-14T02:05:34;9.13;;;3.10;;
5349;SDS011;2697;42.144;24.794;2023-05-14T02:08:00;10.30;;;2.63;;
5349;SDS011;2697;42.144;24.794;2023-05-14T02:10:25;8.03;;;3.57;;
5349;SDS011;2697;42.144;24.794;2023-05-14T02:12:50;5.37;;;3.20;;
5349;SDS011;2697;42.144;24.794;2023-05-14T02:15:16;7.17;;;3.00;;
5349;SDS011;2697;42.144;24.794;2023-05-14T02:17:41;3.83;;;3.40;;
5349;SDS011;2697;42.144;24.794;2023-05-14T02:20:07;4.43;;;3.20;;
5349;SDS011;2697;42.144;24.794;2023-05-14T02:22:34;5.30;;;3.10;;
5349;SDS011;2697;42.144;24.794;2023-05-14T02:24:59;4.40;;;2.90;;
5349;SDS011;2697;42.144;24.794;2023-05-14T02:27:25;9.50;;;3.83;;
5349;SDS011;2697;42.144;24.794;2023-05-14T02:29:50;3.87;;;2.67;;
5349;SDS011;2697;42.144;24.794;2023-05-14T02:32:15;10.23;;;3.03;;
5349;SDS011;2697;42.144;24.794;2023-05-14T02:34:41;12.63;;;4.43;;
5349;SDS011;2697;42.144;24.794;2023-05-14T02:37:06;4.53;;;3.03;;
5349;SDS011;2697;42.144;24.794;2023-05-14T02:39:31;8.93;;;3.10;;
5349;SDS011;2697;42.144;24.794;2023-05-14T02:41:57;11.33;;;3.70;;
5349;SDS011;2697;42.144;24.794;2023-05-14T02:44:22;7.57;;;3.47;;
5349;SDS011;2697;42.144;24.794;2023-05-14T02:46:47;4.87;;;2.87;;
5349;SDS011;2697;42.144;24.794;2023-05-14T02:49:13;3.53;;;2.60;;
5349;SDS011;2697;42.144;24.794;2023-05-14T02:51:38;6.17;;;3.40;;
5349;SDS011;2697;42.144;24.794;2023-05-14T02:54:04;6.90;;;3.70;;
5349;SDS011;2697;42.144;24.794;2023-05-14T02:56:29;10.40;;;3.27;;
5349;SDS011;2697;42.144;24.794;2023-05-14T02:58:55;7.70;;;3.30;;
5349;SDS011;2697;42.144;24.794;2023-05-14T03:01:20;8.33;;;3.57;;
5349;SDS011;2697;42.144;24.794;2023-05-14T03:03:45;17.33;;;3.50;;
5349;SDS011;2697;42.144;24.794;2023-05-14T03:06:11;7.13;;;3.40;;
5349;SDS011;2697;42.144;24.794;2023-05-14T03:08:36;4.50;;;3.40;;
5349;SDS011;2697;42.144;24.794;2023-05-14T03:11:01;6.87;;;3.00;;
5349;SDS011;2697;42.144;24.794;2023-05-14T03:13:27;6.80;;;3.50;;
5349;SDS011;2697;42.144;24.794;2023-05-14T03:15:52;4.90;;;3.40;;
5349;SDS011;2697;42.144;24.794;2023-05-14T03:18:19;4.57;;;4.03;;
5349;SDS011;2697;42.144;24.794;2023-05-14T03:20:44;29.23;;;4.40;;
5349;SDS011;2697;42.144;24.794;2023-05-14T03:23:10;4.17;;;3.43;;
5349;SDS011;2697;42.144;24.794;2023-05-14T03:25:35;3.60;;;2.90;;
5349;SDS011;2697;42.144;24.794;2023-05-14T03:28:01;7.70;;;3.87;;
5349;SDS011;2697;42.144;24.794;2023-05-14T03:30:27;4.77;;;3.60;;
5349;SDS011;2697;42.144;24.794;2023-05-14T03:32:52;6.40;;;3.67;;
5349;SDS011;2697;42.144;24.794;2023-05-14T03:35:18;4.10;;;2.90;;
5349;SDS011;2697;42.144;24.794;2023-05-14T03:37:43;9.87;;;3.40;;
5349;SDS011;2697;42.144;24.794;2023-05-14T03:40:09;9.17;;;3.90;;
5349;SDS011;2697;42.144;24.794;2023-05-14T03:42:34;5.63;;;3.13;;
5349;SDS011;2697;42.144;24.794;2023-05-14T03:45:00;8.80;;;3.00;;
5349;SDS011;2697;42.144;24.794;2023-05-14T03:47:25;9.60;;;3.63;;
5349;SDS011;2697;42.144;24.794;2023-05-14T03:49:50;10.10;;;3.70;;
5349;SDS011;2697;42.144;24.794;2023-05-14T03:52:16;8.10;;;4.00;;
5349;SDS011;2697;42.144;24.794;2023-05-14T03:54:41;4.40;;;3.13;;
5349;SDS011;2697;42.144;24.794;2023-05-14T03:57:07;9.13;;;3.50;;
5349;SDS011;2697;42.144;24.794;2023-05-14T03:59:32;9.53;;;3.60;;
5349;SDS011;2697;42.144;24.794;2023-05-14T04:01:57;5.80;;;3.40;;
5349;SDS011;2697;42.144;24.794;2023-05-14T04:04:23;19.47;;;3.53;;
5349;SDS011;2697;42.144;24.794;2023-05-14T04:06:48;7.10;;;3.57;;
5349;SDS011;2697;42.144;24.794;2023-05-14T04:09:13;10.90;;;3.33;;
5349;SDS011;2697;42.144;24.794;2023-05-14T04:11:39;7.43;;;3.10;;
5349;SDS011;2697;42.144;24.794;2023-05-14T04:14:04;7.87;;;3.47;;
5349;SDS011;2697;42.144;24.794;2023-05-14T04:16:30;7.60;;;3.90;;
5349;SDS011;2697;42.144;24.794;2023-05-14T04:18:55;4.47;;;3.37;;
5349;SDS011;2697;42.144;24.794;2023-05-14T04:21:21;7.20;;;3.63;;
5349;SDS011;2697;42.144;24.794;2023-05-14T04:23:46;6.07;;;4.20;;
5349;SDS011;2697;42.144;24.794;2023-05-14T04:26:11;7.60;;;2.90;;
5349;SDS011;2697;42.144;24.794;2023-05-14T04:28:37;8.80;;;3.33;;
5349;SDS011;2697;42.144;24.794;2023-05-14T04:31:02;5.97;;;4.03;;
5349;SDS011;2697;42.144;24.794;2023-05-14T04:33:28;7.10;;;3.93;;
5349;SDS011;2697;42.144;24.794;2023-05-14T04:35:53;8.13;;;4.47;;
5349;SDS011;2697;42.144;24.794;2023-05-14T04:38:19;23.93;;;4.50;;
5349;SDS011;2697;42.144;24.794;2023-05-14T04:40:44;15.63;;;4.20;;
5349;SDS011;2697;42.144;24.794;2023-05-14T04:43:09;17.90;;;5.13;;
5349;SDS011;2697;42.144;24.794;2023-05-14T04:45:35;5.80;;;4.30;;
5349;SDS011;2697;42.144;24.794;2023-05-14T04:48:01;7.63;;;4.17;;
5349;SDS011;2697;42.144;24.794;2023-05-14T04:50:31;8.90;;;4.93;;
5349;SDS011;2697;42.144;24.794;2023-05-14T04:52:57;19.43;;;4.30;;
5349;SDS011;2697;42.144;24.794;2023-05-14T04:55:22;8.10;;;4.07;;
5349;SDS011;2697;42.144;24.794;2023-05-14T04:57:47;6.83;;;4.10;;
5349;SDS011;2697;42.144;24.794;2023-05-14T05:00:13;9.43;;;4.23;;
5349;SDS011;2697;42.144;24.794;2023-05-14T05:02:41;4.30;;;3.50;;
5349;SDS011;2697;42.144;24.794;2023-05-14T05:05:07;13.13;;;4.00;;
5349;SDS011;2697;42.144;24.794;2023-05-14T05:07:32;4.43;;;3.93;;
5349;SDS011;2697;42.144;24.794;2023-05-14T05:09:58;13.87;;;4.70;;
5349;SDS011;2697;42.144;24.794;2023-05-14T05:12:24;11.70;;;5.50;;
5349;SDS011;2697;42.144;24.794;2023-05-14T05:14:50;11.27;;;6.40;;
5349;SDS011;2697;42.144;24.794;2023-05-14T05:17:15;7.13;;;4.10;;
5349;SDS011;2697;42.144;24.794;2023-05-14T05:19:40;9.70;;;4.30;;
5349;SDS011;2697;42.144;24.794;2023-05-14T05:22:06;5.17;;;3.53;;
5349;SDS011;2697;42.144;24.794;2023-05-14T05:24:31;9.73;;;3.67;;
5349;SDS011;2697;42.144;24.794;2023-05-14T05:26:57;14.80;;;3.67;;
5349;SDS011;2697;42.144;24.794;2023-05-14T05:29:23;9.60;;;4.43;;
5349;SDS011;2697;42.144;24.794;2023-05-14T05:31:48;7.07;;;3.73;;
5349;SDS011;2697;42.144;24.794;2023-05-14T05:34:14;16.73;;;5.63;;
5349;SDS011;2697;42.144;24.794;2023-05-14T05:36:39;7.83;;;3.80;;
5349;SDS011;2697;42.144;24.794;2023-05-14T05:39:05;9.73;;;4.70;;
5349;SDS011;2697;42.144;24.794;2023-05-14T05:41:30;5.47;;;4.17;;
5349;SDS011;2697;42.144;24.794;2023-05-14T05:43:56;6.47;;;3.63;;
5349;SDS011;2697;42.144;24.794;2023-05-14T05:46:21;12.13;;;5.20;;
5349;SDS011;2697;42.144;24.794;2023-05-14T05:48:46;10.30;;;4.60;;
5349;SDS011;2697;42.144;24.794;2023-05-14T05:51:12;11.80;;;3.77;;
5349;SDS011;2697;42.144;24.794;2023-05-14T05:53:39;11.90;;;5.03;;
5349;SDS011;2697;42.144;24.794;2023-05-14T05:56:04;5.47;;;3.60;;
5349;SDS011;2697;42.144;24.794;2023-05-14T05:58:30;4.33;;;3.50;;
5349;SDS011;2697;42.144;24.794;2023-05-14T06:00:56;9.37;;;3.90;;
5349;SDS011;2697;42.144;24.794;2023-05-14T06:03:22;12.50;;;4.23;;
5349;SDS011;2697;42.144;24.794;2023-05-14T06:05:47;21.73;;;4.33;;
5349;SDS011;2697;42.144;24.794;2023-05-14T06:08:12;4.20;;;3.30;;
5349;SDS011;2697;42.144;24.794;2023-05-14T06:10:38;11.60;;;3.67;;
5349;SDS011;2697;42.144;24.794;2023-05-14T06:13:03;9.00;;;3.50;;
5349;SDS011;2697;42.144;24.794;2023-05-14T06:15:29;15.70;;;3.20;;
5349;SDS011;2697;42.144;24.794;2023-05-14T06:17:54;4.17;;;3.17;;
5349;SDS011;2697;42.144;24.794;2023-05-14T06:20:19;5.83;;;3.70;;
5349;SDS011;2697;42.144;24.794;2023-05-14T06:22:45;8.07;;;3.47;;
5349;SDS011;2697;42.144;24.794;2023-05-14T06:25:10;20.30;;;4.17;;
5349;SDS011;2697;42.144;24.794;2023-05-14T06:27:36;17.40;;;3.67;;
5349;SDS011;2697;42.144;24.794;2023-05-14T06:30:01;8.70;;;3.57;;
5349;SDS011;2697;42.144;24.794;2023-05-14T06:32:27;20.63;;;3.43;;
5349;SDS011;2697;42.144;24.794;2023-05-14T06:34:52;5.07;;;3.17;;
5349;SDS011;2697;42.144;24.794;2023-05-14T06:37:18;6.77;;;3.20;;
5349;SDS011;2697;42.144;24.794;2023-05-14T06:39:43;9.30;;;3.10;;
5349;SDS011;2697;42.144;24.794;2023-05-14T06:42:14;11.83;;;3.77;;
5349;SDS011;2697;42.144;24.794;2023-05-14T06:44:42;10.90;;;3.73;;
5349;SDS011;2697;42.144;24.794;2023-05-14T06:47:08;6.90;;;2.90;;
5349;SDS011;2697;42.144;24.794;2023-05-14T06:49:34;8.17;;;3.83;;
5349;SDS011;2697;42.144;24.794;2023-05-14T06:52:00;12.87;;;4.93;;
5349;SDS011;2697;42.144;24.794;2023-05-14T06:54:25;6.90;;;4.10;;
5349;SDS011;2697;42.144;24.794;2023-05-14T06:56:50;8.67;;;3.53;;
5349;SDS011;2697;42.144;24.794;2023-05-14T06:59:16;4.40;;;3.20;;
5349;SDS011;2697;42.144;24.794;2023-05-14T07:01:41;13.73;;;3.97;;
5349;SDS011;2697;42.144;24.794;2023-05-14T07:04:07;8.23;;;4.70;;
5349;SDS011;2697;42.144;24.794;2023-05-14T07:06:32;6.77;;;4.60;;
5349;SDS011;2697;42.144;24.794;2023-05-14T07:08:58;16.17;;;4.90;;
5349;SDS011;2697;42.144;24.794;2023-05-14T07:11:25;11.13;;;4.83;;
5349;SDS011;2697;42.144;24.794;2023-05-14T07:13:50;10.43;;;5.17;;
5349;SDS011;2697;42.144;24.794;2023-05-14T07:16:15;29.37;;;5.37;;
5349;SDS011;2697;42.144;24.794;2023-05-14T07:18:41;10.60;;;5.50;;
5349;SDS011;2697;42.144;24.794;2023-05-14T07:21:06;9.03;;;4.80;;
5349;SDS011;2697;42.144;24.794;2023-05-14T07:23:32;11.27;;;6.10;;
5349;SDS011;2697;42.144;24.794;2023-05-14T07:26:00;12.40;;;5.90;;
5349;SDS011;2697;42.144;24.794;2023-05-14T07:28:25;14.60;;;6.53;;
5349;SDS011;2697;42.144;24.794;2023-05-14T07:30:50;15.97;;;6.53;;
5349;SDS011;2697;42.144;24.794;2023-05-14T07:33:16;9.17;;;6.10;;
5349;SDS011;2697;42.144;24.794;2023-05-14T07:35:41;11.33;;;6.10;;
5349;SDS011;2697;42.144;24.794;2023-05-14T07:38:06;19.37;;;6.90;;
5349;SDS011;2697;42.144;24.794;2023-05-14T07:40:32;11.50;;;7.30;;
5349;SDS011;2697;42.144;24.794;2023-05-14T07:42:57;14.80;;;7.83;;
5349;SDS011;2697;42.144;24.794;2023-05-14T07:45:22;15.67;;;7.50;;
5349;SDS011;2697;42.144;24.794;2023-05-14T07:47:48;20.10;;;10.07;;
5349;SDS011;2697;42.144;24.794;2023-05-14T07:50:19;18.30;;;10.23;;
5349;SDS011;2697;42.144;24.794;2023-05-14T07:52:45;13.53;;;7.00;;
5349;SDS011;2697;42.144;24.794;2023-05-14T07:55:11;9.43;;;5.60;;
5349;SDS011;2697;42.144;24.794;2023-05-14T07:57:37;17.03;;;7.43;;
5349;SDS011;2697;42.144;24.794;2023-05-14T08:00:03;14.03;;;7.47;;
5349;SDS011;2697;42.144;24.794;2023-05-14T08:02:32;8.67;;;6.50;;
5349;SDS011;2697;42.144;24.794;2023-05-14T08:04:57;12.30;;;6.10;;
5349;SDS011;2697;42.144;24.794;2023-05-14T08:07:23;18.77;;;7.27;;
5349;SDS011;2697;42.144;24.794;2023-05-14T08:09:48;9.47;;;5.73;;
5349;SDS011;2697;42.144;24.794;2023-05-14T08:12:14;18.53;;;6.70;;
5349;SDS011;2697;42.144;24.794;2023-05-14T08:14:40;8.60;;;5.67;;
5349;SDS011;2697;42.144;24.794;2023-05-14T08:17:05;13.63;;;5.87;;
5349;SDS011;2697;42.144;24.794;2023-05-14T08:19:31;10.70;;;7.27;;
5349;SDS011;2697;42.144;24.794;2023-05-14T08:21:56;13.20;;;6.90;;
5349;SDS011;2697;42.144;24.794;2023-05-14T08:24:22;12.67;;;6.80;;
5349;SDS011;2697;42.144;24.794;2023-05-14T08:26:47;11.80;;;6.90;;
5349;SDS011;2697;42.144;24.794;2023-05-14T08:29:12;15.03;;;6.40;;
5349;SDS011;2697;42.144;24.794;2023-05-14T08:31:39;10.30;;;6.40;;
5349;SDS011;2697;42.144;24.794;2023-05-14T08:34:04;12.07;;;6.00;;
5349;SDS011;2697;42.144;24.794;2023-05-14T08:36:30;9.97;;;5.87;;
5349;SDS011;2697;42.144;24.794;2023-05-14T08:38:56;12.03;;;5.70;;
5349;SDS011;2697;42.144;24.794;2023-05-14T08:41:22;12.70;;;6.10;;
5349;SDS011;2697;42.144;24.794;2023-05-14T08:46:24;11.37;;;6.30;;
5349;SDS011;2697;42.144;24.794;2023-05-14T08:48:55;11.30;;;7.03;;
5349;SDS011;2697;42.144;24.794;2023-05-14T08:51:25;17.97;;;7.73;;
5349;SDS011;2697;42.144;24.794;2023-05-14T08:53:51;11.60;;;8.20;;
5349;SDS011;2697;42.144;24.794;2023-05-14T08:56:17;16.90;;;8.47;;
5349;SDS011;2697;42.144;24.794;2023-05-14T08:58:43;12.87;;;7.03;;
5349;SDS011;2697;42.144;24.794;2023-05-14T09:01:08;13.13;;;7.40;;
5349;SDS011;2697;42.144;24.794;2023-05-14T09:03:34;15.30;;;8.00;;
5349;SDS011;2697;42.144;24.794;2023-05-14T09:06:00;12.30;;;7.80;;
5349;SDS011;2697;42.144;24.794;2023-05-14T09:08:26;19.80;;;8.70;;
5349;SDS011;2697;42.144;24.794;2023-05-14T09:10:52;16.07;;;9.13;;
5349;SDS011;2697;42.144;24.794;2023-05-14T09:13:17;25.30;;;10.97;;
5349;SDS011;2697;42.144;24.794;2023-05-14T09:15:42;15.40;;;9.37;;
5349;SDS011;2697;42.144;24.794;2023-05-14T09:18:10;15.53;;;9.67;;
5349;SDS011;2697;42.144;24.794;2023-05-14T09:20:35;11.80;;;8.23;;
5349;SDS011;2697;42.144;24.794;2023-05-14T09:23:02;12.97;;;8.60;;
5349;SDS011;2697;42.144;24.794;2023-05-14T09:25:32;15.90;;;8.80;;
5349;SDS011;2697;42.144;24.794;2023-05-14T09:27:57;22.77;;;8.13;;
5349;SDS011;2697;42.144;24.794;2023-05-14T09:30:23;12.80;;;8.20;;
5349;SDS011;2697;42.144;24.794;2023-05-14T09:32:51;12.87;;;8.07;;
5349;SDS011;2697;42.144;24.794;2023-05-14T09:35:22;12.47;;;8.03;;
5349;SDS011;2697;42.144;24.794;2023-05-14T09:37:49;15.63;;;7.77;;
5349;SDS011;2697;42.144;24.794;2023-05-14T09:40:16;9.50;;;7.50;;
5349;SDS011;2697;42.144;24.794;2023-05-14T09:42:43;9.47;;;7.97;;
5349;SDS011;2697;42.144;24.794;2023-05-14T09:45:09;17.80;;;8.07;;
5349;SDS011;2697;42.144;24.794;2023-05-14T09:47:36;16.40;;;9.30;;
5349;SDS011;2697;42.144;24.794;2023-05-14T09:50:02;19.23;;;10.10;;
5349;SDS011;2697;42.144;24.794;2023-05-14T09:52:28;15.30;;;10.30;;
5349;SDS011;2697;42.144;24.794;2023-05-14T09:54:54;13.33;;;8.67;;
5349;SDS011;2697;42.144;24.794;2023-05-14T09:57:20;13.87;;;8.63;;
5349;SDS011;2697;42.144;24.794;2023-05-14T09:59:45;13.90;;;8.73;;
5349;SDS011;2697;42.144;24.794;2023-05-14T10:02:21;17.90;;;9.53;;
5349;SDS011;2697;42.144;24.794;2023-05-14T10:04:48;16.00;;;8.73;;
5349;SDS011;2697;42.144;24.794;2023-05-14T10:07:16;14.07;;;8.90;;
5349;SDS011;2697;42.144;24.794;2023-05-14T10:09:45;10.97;;;8.77;;
5349;SDS011;2697;42.144;24.794;2023-05-14T10:12:11;14.53;;;7.50;;
5349;SDS011;2697;42.144;24.794;2023-05-14T10:14:42;11.47;;;7.20;;
5349;SDS011;2697;42.144;24.794;2023-05-14T10:17:13;12.80;;;8.67;;
5349;SDS011;2697;42.144;24.794;2023-05-14T10:19:42;14.43;;;7.43;;
5349;SDS011;2697;42.144;24.794;2023-05-14T10:22:21;9.83;;;6.60;;
5349;SDS011;2697;42.144;24.794;2023-05-14T10:24:47;13.57;;;7.60;;
5349;SDS011;2697;42.144;24.794;2023-05-14T10:27:16;13.43;;;8.37;;
5349;SDS011;2697;42.144;24.794;2023-05-14T10:29:52;33.20;;;10.00;;
5349;SDS011;2697;42.144;24.794;2023-05-14T10:32:19;13.50;;;9.10;;
5349;SDS011;2697;42.144;24.794;2023-05-14T10:34:49;12.27;;;8.83;;
5349;SDS011;2697;42.144;24.794;2023-05-14T10:37:17;15.93;;;8.50;;
5349;SDS011;2697;42.144;24.794;2023-05-14T10:44:53;19.40;;;10.57;;
5349;SDS011;2697;42.144;24.794;2023-05-14T10:47:22;17.70;;;9.63;;
5349;SDS011;2697;42.144;24.794;2023-05-14T10:49:48;12.63;;;8.43;;
5349;SDS011;2697;42.144;24.794;2023-05-14T10:52:17;28.60;;;8.50;;
5349;SDS011;2697;42.144;24.794;2023-05-14T10:54:56;12.73;;;8.77;;
5349;SDS011;2697;42.144;24.794;2023-05-14T10:57:25;14.47;;;8.20;;
5349;SDS011;2697;42.144;24.794;2023-05-14T10:59:55;13.50;;;9.03;;
5349;SDS011;2697;42.144;24.794;2023-05-14T11:02:25;15.20;;;7.17;;
5349;SDS011;2697;42.144;24.794;2023-05-14T11:04:52;10.60;;;7.80;;
5349;SDS011;2697;42.144;24.794;2023-05-14T11:07:22;14.60;;;8.30;;
5349;SDS011;2697;42.144;24.794;2023-05-14T11:09:51;13.00;;;6.93;;
5349;SDS011;2697;42.144;24.794;2023-05-14T11:12:17;11.53;;;7.63;;
5349;SDS011;2697;42.144;24.794;2023-05-14T11:14:42;14.90;;;7.67;;
5349;SDS011;2697;42.144;24.794;2023-05-14T11:17:08;14.23;;;6.90;;
5349;SDS011;2697;42.144;24.794;2023-05-14T11:19:34;11.10;;;8.10;;
5349;SDS011;2697;42.144;24.794;2023-05-14T11:22:00;11.03;;;7.10;;
5349;SDS011;2697;42.144;24.794;2023-05-14T11:24:25;28.73;;;8.80;;
5349;SDS011;2697;42.144;24.794;2023-05-14T11:26:51;9.93;;;6.60;;
5349;SDS011;2697;42.144;24.794;2023-05-14T11:29:19;15.47;;;7.70;;
5349;SDS011;2697;42.144;24.794;2023-05-14T11:31:45;10.03;;;6.87;;
5349;SDS011;2697;42.144;24.794;2023-05-14T11:34:10;7.83;;;6.40;;
5349;SDS011;2697;42.144;24.794;2023-05-14T11:36:35;9.97;;;6.73;;
5349;SDS011;2697;42.144;24.794;2023-05-14T11:39:01;16.50;;;7.00;;
5349;SDS011;2697;42.144;24.794;2023-05-14T11:41:26;13.90;;;7.37;;
5349;SDS011;2697;42.144;24.794;2023-05-14T11:43:52;12.77;;;8.17;;
5349;SDS011;2697;42.144;24.794;2023-05-14T11:46:17;10.87;;;7.03;;
5349;SDS011;2697;42.144;24.794;2023-05-14T11:48:43;13.63;;;8.57;;
5349;SDS011;2697;42.144;24.794;2023-05-14T11:51:08;17.07;;;8.77;;
5349;SDS011;2697;42.144;24.794;2023-05-14T11:53:34;12.70;;;9.23;;
5349;SDS011;2697;42.144;24.794;2023-05-14T11:55:59;17.13;;;9.00;;
5349;SDS011;2697;42.144;24.794;2023-05-14T11:58:27;11.70;;;7.80;;
5349;SDS011;2697;42.144;24.794;2023-05-14T12:00:56;15.63;;;8.53;;
5349;SDS011;2697;42.144;24.794;2023-05-14T12:03:21;15.00;;;8.80;;
5349;SDS011;2697;42.144;24.794;2023-05-14T12:08:25;18.73;;;8.27;;
5349;SDS011;2697;42.144;24.794;2023-05-14T12:10:56;24.20;;;8.07;;
5349;SDS011;2697;42.144;24.794;2023-05-14T12:13:26;14.90;;;8.53;;
5349;SDS011;2697;42.144;24.794;2023-05-14T12:15:53;12.50;;;7.73;;
5349;SDS011;2697;42.144;24.794;2023-05-14T12:18:26;10.10;;;7.77;;
5349;SDS011;2697;42.144;24.794;2023-05-14T12:20:52;15.43;;;7.90;;
5349;SDS011;2697;42.144;24.794;2023-05-14T12:23:30;10.33;;;7.47;;
5349;SDS011;2697;42.144;24.794;2023-05-14T12:26:00;16.00;;;9.87;;
5349;SDS011;2697;42.144;24.794;2023-05-14T12:28:30;15.07;;;9.47;;
5349;SDS011;2697;42.144;24.794;2023-05-14T12:30:56;13.80;;;9.93;;
5349;SDS011;2697;42.144;24.794;2023-05-14T12:33:22;13.40;;;9.90;;
5349;SDS011;2697;42.144;24.794;2023-05-14T12:35:48;18.93;;;10.90;;
5349;SDS011;2697;42.144;24.794;2023-05-14T12:38:14;15.00;;;10.33;;
5349;SDS011;2697;42.144;24.794;2023-05-14T12:40:39;16.20;;;10.30;;
5349;SDS011;2697;42.144;24.794;2023-05-14T12:43:05;15.97;;;9.37;;
5349;SDS011;2697;42.144;24.794;2023-05-14T12:45:30;16.67;;;9.90;;
5349;SDS011;2697;42.144;24.794;2023-05-14T12:47:55;19.20;;;11.17;;
5349;SDS011;2697;42.144;24.794;2023-05-14T12:50:21;14.37;;;9.20;;
5349;SDS011;2697;42.144;24.794;2023-05-14T12:52:46;16.53;;;10.60;;
5349;SDS011;2697;42.144;24.794;2023-05-14T12:55:12;20.00;;;10.20;;
5349;SDS011;2697;42.144;24.794;2023-05-14T12:57:37;23.73;;;10.97;;
5349;SDS011;2697;42.144;24.794;2023-05-14T13:00:03;15.97;;;11.40;;
5349;SDS011;2697;42.144;24.794;2023-05-14T13:02:32;15.60;;;11.60;;
5349;SDS011;2697;42.144;24.794;2023-05-14T13:04:58;16.90;;;11.33;;
5349;SDS011;2697;42.144;24.794;2023-05-14T13:07:26;14.90;;;11.23;;
5349;SDS011;2697;42.144;24.794;2023-05-14T13:09:54;19.47;;;12.47;;
5349;SDS011;2697;42.144;24.794;2023-05-14T13:12:19;16.50;;;12.20;;
5349;SDS011;2697;42.144;24.794;2023-05-14T13:14:45;20.63;;;13.40;;
5349;SDS011;2697;42.144;24.794;2023-05-14T13:17:10;30.00;;;13.93;;
5349;SDS011;2697;42.144;24.794;2023-05-14T13:19:36;19.63;;;13.10;;
5349;SDS011;2697;42.144;24.794;2023-05-14T13:22:01;19.70;;;14.50;;
5349;SDS011;2697;42.144;24.794;2023-05-14T13:24:26;20.30;;;14.93;;
5349;SDS011;2697;42.144;24.794;2023-05-14T13:26:52;22.03;;;14.63;;
5349;SDS011;2697;42.144;24.794;2023-05-14T13:29:17;24.33;;;15.03;;
5349;SDS011;2697;42.144;24.794;2023-05-14T13:31:42;26.10;;;15.00;;
5349;SDS011;2697;42.144;24.794;2023-05-14T13:34:08;19.27;;;14.50;;
5349;SDS011;2697;42.144;24.794;2023-05-14T13:36:34;20.60;;;14.40;;
5349;SDS011;2697;42.144;24.794;2023-05-14T13:39:03;23.17;;;15.10;;
5349;SDS011;2697;42.144;24.794;2023-05-14T13:41:30;22.73;;;14.40;;
5349;SDS011;2697;42.144;24.794;2023-05-14T13:43:58;17.70;;;12.60;;
5349;SDS011;2697;42.144;24.794;2023-05-14T13:46:24;27.30;;;14.27;;
5349;SDS011;2697;42.144;24.794;2023-05-14T13:48:49;22.43;;;13.50;;
5349;SDS011;2697;42.144;24.794;2023-05-14T13:51:15;19.03;;;13.93;;
5349;SDS011;2697;42.144;24.794;2023-05-14T13:53:40;19.97;;;13.00;;
5349;SDS011;2697;42.144;24.794;2023-05-14T13:56:06;25.67;;;15.87;;
5349;SDS011;2697;42.144;24.794;2023-05-14T13:58:32;23.87;;;14.17;;
5349;SDS011;2697;42.144;24.794;2023-05-14T14:00:57;24.40;;;15.60;;
5349;SDS011;2697;42.144;24.794;2023-05-14T14:03:23;20.63;;;15.03;;
5349;SDS011;2697;42.144;24.794;2023-05-14T14:05:48;26.33;;;15.73;;
5349;SDS011;2697;42.144;24.794;2023-05-14T14:08:15;34.43;;;17.53;;
5349;SDS011;2697;42.144;24.794;2023-05-14T14:10:40;25.43;;;17.20;;
5349;SDS011;2697;42.144;24.794;2023-05-14T14:13:06;30.90;;;17.43;;
5349;SDS011;2697;42.144;24.794;2023-05-14T14:15:32;28.07;;;17.60;;
5349;SDS011;2697;42.144;24.794;2023-05-14T14:17:57;28.00;;;15.63;;
5349;SDS011;2697;42.144;24.794;2023-05-14T14:20:23;37.77;;;17.03;;
5349;SDS011;2697;42.144;24.794;2023-05-14T14:22:48;29.20;;;17.53;;
5349;SDS011;2697;42.144;24.794;2023-05-14T14:25:13;30.37;;;19.30;;
5349;SDS011;2697;42.144;24.794;2023-05-14T14:27:39;29.10;;;18.57;;
5349;SDS011;2697;42.144;24.794;2023-05-14T14:30:06;27.73;;;17.20;;
5349;SDS011;2697;42.144;24.794;2023-05-14T14:32:32;30.50;;;16.57;;
5349;SDS011;2697;42.144;24.794;2023-05-14T14:34:57;27.17;;;15.80;;
5349;SDS011;2697;42.144;24.794;2023-05-14T14:37:23;30.60;;;18.23;;
5349;SDS011;2697;42.144;24.794;2023-05-14T14:39:48;31.60;;;17.30;;
5349;SDS011;2697;42.144;24.794;2023-05-14T14:42:13;25.27;;;17.03;;
5349;SDS011;2697;42.144;24.794;2023-05-14T14:44:39;33.20;;;16.70;;
5349;SDS011;2697;42.144;24.794;2023-05-14T14:47:05;22.67;;;15.97;;
5349;SDS011;2697;42.144;24.794;2023-05-14T14:49:30;26.93;;;16.13;;
5349;SDS011;2697;42.144;24.794;2023-05-14T14:51:56;37.30;;;18.63;;
5349;SDS011;2697;42.144;24.794;2023-05-14T14:54:21;28.23;;;18.17;;
5349;SDS011;2697;42.144;24.794;2023-05-14T14:56:47;29.00;;;18.13;;
5349;SDS011;2697;42.144;24.794;2023-05-14T14:59:16;30.27;;;18.43;;
5349;SDS011;2697;42.144;24.794;2023-05-14T15:01:41;33.30;;;18.57;;
5349;SDS011;2697;42.144;24.794;2023-05-14T15:04:07;30.13;;;19.67;;